sensor_id;sensor_type;location;lat;lon;timestamp;temperature;humidity
17200;DHT22;8716;52.268;20.968;2022-10-31T00:01:29;10.80;99.90
17200;DHT22;8716;52.268;20.968;2022-10-31T00:03:58;10.80;99.90
17200;DHT22;8716;52.268;20.968;2022-10-31T00:06:26;10.80;99.90
17200;DHT22;8716;52.268;20.968;2022-10-31T00:08:56;10.80;99.90
17200;DHT22;8716;52.268;20.968;2022-10-31T00:11:25;10.70;99.90
17200;DHT22;8716;52.268;20.968;2022-10-31T00:13:55;10.70;99.90
17200;DHT22;8716;52.268;20.968;2022-10-31T00:16:25;10.70;99.90
17200;DHT22;8716;52.268;20.968;2022-10-31T00:18:55;10.70;99.90
17200;DHT22;8716;52.268;20.968;2022-10-31T00:21:24;10.70;99.90
17200;DHT22;8716;52.268;20.968;2022-10-31T00:23:53;10.70;99.90
17200;DHT22;8716;52.268;20.968;2022-10-31T00:26:21;10.70;99.90
17200;DHT22;8716;52.268;20.968;2022-10-31T00:28:49;10.70;99.90
17200;DHT22;8716;52.268;20.968;2022-10-31T00:31:19;10.70;99.90
17200;DHT22;8716;52.268;20.968;2022-10-31T00:33:49;10.70;99.90
17200;DHT22;8716;52.268;20.968;2022-10-31T00:36:18;10.70;99.90
17200;DHT22;8716;52.268;20.968;2022-10-31T00:38:47;10.70;99.90
17200;DHT22;8716;52.268;20.968;2022-10-31T00:41:17;10.70;99.90
17200;DHT22;8716;52.268;20.968;2022-10-31T00:43:46;10.70;99.90
17200;DHT22;8716;52.268;20.968;2022-10-31T00:46:14;10.70;99.90
17200;DHT22;8716;52.268;20.968;2022-10-31T00:48:44;10.70;99.90
17200;DHT22;8716;52.268;20.968;2022-10-31T00:51:12;10.70;99.90
17200;DHT22;8716;52.268;20.968;2022-10-31T00:53:41;10.70;99.90
17200;DHT22;8716;52.268;20.968;2022-10-31T00:56:09;10.60;99.90
17200;DHT22;8716;52.268;20.968;2022-10-31T00:58:38;10.60;99.90
17200;DHT22;8716;52.268;20.968;2022-10-31T01:01:08;10.60;99.90
17200;DHT22;8716;52.268;20.968;2022-10-31T01:03:36;10.60;99.90
17200;DHT22;8716;52.268;20.968;2022-10-31T01:06:12;10.60;99.90
17200;DHT22;8716;52.268;20.968;2022-10-31T01:08:41;10.60;99.90
17200;DHT22;8716;52.268;20.968;2022-10-31T01:11:13;10.60;99.90
17200;DHT22;8716;52.268;20.968;2022-10-31T01:13:42;10.50;99.90
17200;DHT22;8716;52.268;20.968;2022-10-31T01:16:12;10.50;99.90
17200;DHT22;8716;52.268;20.968;2022-10-31T01:18:41;10.50;99.90
17200;DHT22;8716;52.268;20.968;2022-10-31T01:21:13;10.50;99.90
17200;DHT22;8716;52.268;20.968;2022-10-31T01:23:41;10.40;99.90
17200;DHT22;8716;52.268;20.968;2022-10-31T01:26:14;10.40;99.90
17200;DHT22;8716;52.268;20.968;2022-10-31T01:28:46;10.40;99.90
17200;DHT22;8716;52.268;20.968;2022-10-31T01:31:16;10.40;99.90
17200;DHT22;8716;52.268;20.968;2022-10-31T01:33:45;10.40;99.90
17200;DHT22;8716;52.268;20.968;2022-10-31T01:36:17;10.30;99.90
17200;DHT22;8716;52.268;20.968;2022-10-31T01:38:51;10.30;99.90
17200;DHT22;8716;52.268;20.968;2022-10-31T01:41:21;10.30;99.90
17200;DHT22;8716;52.268;20.968;2022-10-31T01:43:53;10.30;99.90
17200;DHT22;8716;52.268;20.968;2022-10-31T01:46:23;10.20;99.90
17200;DHT22;8716;52.268;20.968;2022-10-31T01:48:53;10.20;99.90
17200;DHT22;8716;52.268;20.968;2022-10-31T01:51:26;10.20;99.90
17200;DHT22;8716;52.268;20.968;2022-10-31T01:53:59;10.20;99.90
17200;DHT22;8716;52.268;20.968;2022-10-31T01:56:28;10.20;99.90
17200;DHT22;8716;52.268;20.968;2022-10-31T01:58:57;10.10;99.90
17200;DHT22;8716;52.268;20.968;2022-10-31T02:01:28;10.10;99.90
17200;DHT22;8716;52.268;20.968;2022-10-31T02:03:56;10.20;99.90
17200;DHT22;8716;52.268;20.968;2022-10-31T02:06:33;10.20;99.90
17200;DHT22;8716;52.268;20.968;2022-10-31T02:09:04;10.20;99.90
17200;DHT22;8716;52.268;20.968;2022-10-31T02:11:34;10.30;99.90
17200;DHT22;8716;52.268;20.968;2022-10-31T02:14:04;10.40;99.90
17200;DHT22;8716;52.268;20.968;2022-10-31T02:16:33;10.40;99.90
17200;DHT22;8716;52.268;20.968;2022-10-31T02:19:02;10.50;99.90
17200;DHT22;8716;52.268;20.968;2022-10-31T02:21:37;10.50;99.90
17200;DHT22;8716;52.268;20.968;2022-10-31T02:24:34;10.60;99.90
17200;DHT22;8716;52.268;20.968;2022-10-31T02:27:15;10.60;99.90
17200;DHT22;8716;52.268;20.968;2022-10-31T02:30:10;10.60;99.90
17200;DHT22;8716;52.268;20.968;2022-10-31T02:35:45;10.70;99.90
17200;DHT22;8716;52.268;20.968;2022-10-31T02:38:26;10.70;99.90
17200;DHT22;8716;52.268;20.968;2022-10-31T02:41:04;10.70;99.90
17200;DHT22;8716;52.268;20.968;2022-10-31T02:43:44;10.70;99.90
17200;DHT22;8716;52.268;20.968;2022-10-31T02:46:22;10.80;99.90
17200;DHT22;8716;52.268;20.968;2022-10-31T02:48:55;10.80;99.90
17200;DHT22;8716;52.268;20.968;2022-10-31T02:51:26;10.80;99.90
17200;DHT22;8716;52.268;20.968;2022-10-31T02:53:55;10.90;99.90
17200;DHT22;8716;52.268;20.968;2022-10-31T02:56:23;10.90;99.90
17200;DHT22;8716;52.268;20.968;2022-10-31T02:58:53;10.90;99.90
17200;DHT22;8716;52.268;20.968;2022-10-31T03:01:44;10.90;99.90
17200;DHT22;8716;52.268;20.968;2022-10-31T03:04:42;10.90;99.90
17200;DHT22;8716;52.268;20.968;2022-10-31T03:07:23;10.90;99.90
17200;DHT22;8716;52.268;20.968;2022-10-31T03:10:03;10.90;99.90
17200;DHT22;8716;52.268;20.968;2022-10-31T03:12:39;10.90;99.90
17200;DHT22;8716;52.268;20.968;2022-10-31T03:15:21;10.90;99.90
17200;DHT22;8716;52.268;20.968;2022-10-31T03:17:54;10.80;99.90
17200;DHT22;8716;52.268;20.968;2022-10-31T03:20:30;10.80;99.90
17200;DHT22;8716;52.268;20.968;2022-10-31T03:23:02;10.80;99.90
17200;DHT22;8716;52.268;20.968;2022-10-31T03:25:32;10.80;99.90
17200;DHT22;8716;52.268;20.968;2022-10-31T03:28:02;10.80;99.90
17200;DHT22;8716;52.268;20.968;2022-10-31T03:30:33;10.80;99.90
17200;DHT22;8716;52.268;20.968;2022-10-31T03:33:05;10.80;99.90
17200;DHT22;8716;52.268;20.968;2022-10-31T03:35:41;10.70;99.90
17200;DHT22;8716;52.268;20.968;2022-10-31T03:38:11;10.70;99.90
17200;DHT22;8716;52.268;20.968;2022-10-31T03:40:43;10.70;99.90
17200;DHT22;8716;52.268;20.968;2022-10-31T03:43:17;10.70;99.90
17200;DHT22;8716;52.268;20.968;2022-10-31T03:45:52;10.60;99.90
17200;DHT22;8716;52.268;20.968;2022-10-31T03:48:21;10.60;99.90
17200;DHT22;8716;52.268;20.968;2022-10-31T03:51:00;10.50;99.90
17200;DHT22;8716;52.268;20.968;2022-10-31T03:53:34;10.50;99.90
17200;DHT22;8716;52.268;20.968;2022-10-31T03:56:09;10.50;99.90
17200;DHT22;8716;52.268;20.968;2022-10-31T03:58:42;10.50;99.90
17200;DHT22;8716;52.268;20.968;2022-10-31T04:01:13;10.40;99.90
17200;DHT22;8716;52.268;20.968;2022-10-31T04:03:44;10.40;99.90
17200;DHT22;8716;52.268;20.968;2022-10-31T04:06:17;10.40;99.90
17200;DHT22;8716;52.268;20.968;2022-10-31T04:08:49;10.30;99.90
17200;DHT22;8716;52.268;20.968;2022-10-31T04:11:22;10.30;99.90
17200;DHT22;8716;52.268;20.968;2022-10-31T04:14:11;10.30;99.90
17200;DHT22;8716;52.268;20.968;2022-10-31T04:16:42;10.30;99.90
17200;DHT22;8716;52.268;20.968;2022-10-31T04:19:11;10.30;99.90
17200;DHT22;8716;52.268;20.968;2022-10-31T04:21:41;10.20;99.90
17200;DHT22;8716;52.268;20.968;2022-10-31T04:24:10;10.20;99.90
17200;DHT22;8716;52.268;20.968;2022-10-31T04:26:39;10.20;99.90
17200;DHT22;8716;52.268;20.968;2022-10-31T04:29:08;10.20;99.90
17200;DHT22;8716;52.268;20.968;2022-10-31T04:31:37;10.10;99.90
17200;DHT22;8716;52.268;20.968;2022-10-31T04:34:06;10.10;99.90
17200;DHT22;8716;52.268;20.968;2022-10-31T04:36:37;10.10;99.90
17200;DHT22;8716;52.268;20.968;2022-10-31T04:39:08;10.00;99.90
17200;DHT22;8716;52.268;20.968;2022-10-31T04:41:46;10.00;99.90
17200;DHT22;8716;52.268;20.968;2022-10-31T04:44:14;10.00;99.90
17200;DHT22;8716;52.268;20.968;2022-10-31T04:46:46;9.90;99.90
17200;DHT22;8716;52.268;20.968;2022-10-31T04:49:15;9.90;99.90
17200;DHT22;8716;52.268;20.968;2022-10-31T04:51:43;9.90;99.90
17200;DHT22;8716;52.268;20.968;2022-10-31T04:54:15;9.90;99.90
17200;DHT22;8716;52.268;20.968;2022-10-31T04:56:44;9.80;99.90
17200;DHT22;8716;52.268;20.968;2022-10-31T04:59:18;9.80;99.90
17200;DHT22;8716;52.268;20.968;2022-10-31T05:01:52;9.80;99.90
17200;DHT22;8716;52.268;20.968;2022-10-31T05:04:27;9.80;99.90
17200;DHT22;8716;52.268;20.968;2022-10-31T05:06:56;9.70;99.90
17200;DHT22;8716;52.268;20.968;2022-10-31T05:09:26;9.70;99.90
17200;DHT22;8716;52.268;20.968;2022-10-31T05:11:54;9.70;99.90
17200;DHT22;8716;52.268;20.968;2022-10-31T05:14:41;9.70;99.90
17200;DHT22;8716;52.268;20.968;2022-10-31T05:17:33;9.70;99.90
17200;DHT22;8716;52.268;20.968;2022-10-31T05:20:11;9.70;99.90
17200;DHT22;8716;52.268;20.968;2022-10-31T05:22:59;9.70;99.90
17200;DHT22;8716;52.268;20.968;2022-10-31T05:25:29;9.70;99.90
17200;DHT22;8716;52.268;20.968;2022-10-31T05:28:01;9.60;99.90
17200;DHT22;8716;52.268;20.968;2022-10-31T05:30:31;9.60;99.90
17200;DHT22;8716;52.268;20.968;2022-10-31T05:33:00;9.50;99.90
17200;DHT22;8716;52.268;20.968;2022-10-31T05:35:48;9.50;99.90
17200;DHT22;8716;52.268;20.968;2022-10-31T05:38:25;9.60;99.90
17200;DHT22;8716;52.268;20.968;2022-10-31T05:40:57;9.60;99.90
17200;DHT22;8716;52.268;20.968;2022-10-31T05:43:28;9.60;99.90
17200;DHT22;8716;52.268;20.968;2022-10-31T05:45:57;9.70;99.90
17200;DHT22;8716;52.268;20.968;2022-10-31T05:48:45;9.70;99.90
17200;DHT22;8716;52.268;20.968;2022-10-31T05:51:33;9.70;99.90
17200;DHT22;8716;52.268;20.968;2022-10-31T05:54:03;9.70;99.90
17200;DHT22;8716;52.268;20.968;2022-10-31T05:56:33;9.60;99.90
17200;DHT22;8716;52.268;20.968;2022-10-31T05:59:01;9.60;99.90
17200;DHT22;8716;52.268;20.968;2022-10-31T06:01:29;9.60;99.90
17200;DHT22;8716;52.268;20.968;2022-10-31T06:04:04;9.60;99.90
17200;DHT22;8716;52.268;20.968;2022-10-31T06:06:34;9.70;99.90
17200;DHT22;8716;52.268;20.968;2022-10-31T06:09:02;9.80;99.90
17200;DHT22;8716;52.268;20.968;2022-10-31T06:11:35;9.80;99.90
17200;DHT22;8716;52.268;20.968;2022-10-31T06:14:03;9.80;99.90
17200;DHT22;8716;52.268;20.968;2022-10-31T06:16:44;9.90;99.90
17200;DHT22;8716;52.268;20.968;2022-10-31T06:19:31;9.90;99.90
17200;DHT22;8716;52.268;20.968;2022-10-31T06:21:59;9.90;99.90
17200;DHT22;8716;52.268;20.968;2022-10-31T06:24:28;9.90;99.90
17200;DHT22;8716;52.268;20.968;2022-10-31T06:27:05;10.00;99.90
17200;DHT22;8716;52.268;20.968;2022-10-31T06:29:33;10.00;99.90
17200;DHT22;8716;52.268;20.968;2022-10-31T06:32:10;10.00;99.90
17200;DHT22;8716;52.268;20.968;2022-10-31T06:34:42;10.10;99.90
17200;DHT22;8716;52.268;20.968;2022-10-31T06:37:14;10.10;99.90
17200;DHT22;8716;52.268;20.968;2022-10-31T06:39:45;10.20;99.90
17200;DHT22;8716;52.268;20.968;2022-10-31T06:42:17;10.20;99.90
17200;DHT22;8716;52.268;20.968;2022-10-31T06:44:45;10.30;99.90
17200;DHT22;8716;52.268;20.968;2022-10-31T06:47:42;10.30;99.90
17200;DHT22;8716;52.268;20.968;2022-10-31T06:50:44;10.30;99.90
17200;DHT22;8716;52.268;20.968;2022-10-31T06:53:14;10.40;99.90
17200;DHT22;8716;52.268;20.968;2022-10-31T06:55:42;10.40;99.90
17200;DHT22;8716;52.268;20.968;2022-10-31T06:58:13;10.40;99.90
17200;DHT22;8716;52.268;20.968;2022-10-31T07:00:45;10.50;99.90
17200;DHT22;8716;52.268;20.968;2022-10-31T07:03:14;10.60;99.90
17200;DHT22;8716;52.268;20.968;2022-10-31T07:05:44;10.70;99.90
17200;DHT22;8716;52.268;20.968;2022-10-31T07:08:14;10.80;99.90
17200;DHT22;8716;52.268;20.968;2022-10-31T07:10:43;10.80;99.90
17200;DHT22;8716;52.268;20.968;2022-10-31T07:13:20;10.90;99.90
17200;DHT22;8716;52.268;20.968;2022-10-31T07:16:02;11.00;99.90
17200;DHT22;8716;52.268;20.968;2022-10-31T07:18:33;11.00;99.90
17200;DHT22;8716;52.268;20.968;2022-10-31T07:21:02;11.00;99.90
17200;DHT22;8716;52.268;20.968;2022-10-31T07:23:31;11.10;99.90
17200;DHT22;8716;52.268;20.968;2022-10-31T07:26:19;11.10;99.90
17200;DHT22;8716;52.268;20.968;2022-10-31T07:28:49;11.30;99.90
17200;DHT22;8716;52.268;20.968;2022-10-31T07:31:21;11.30;99.90
17200;DHT22;8716;52.268;20.968;2022-10-31T07:33:51;11.40;99.90
17200;DHT22;8716;52.268;20.968;2022-10-31T07:36:42;11.30;99.90
17200;DHT22;8716;52.268;20.968;2022-10-31T07:39:11;11.30;99.90
17200;DHT22;8716;52.268;20.968;2022-10-31T07:41:40;11.30;99.90
17200;DHT22;8716;52.268;20.968;2022-10-31T07:44:10;11.20;99.90
17200;DHT22;8716;52.268;20.968;2022-10-31T07:47:07;11.20;99.90
17200;DHT22;8716;52.268;20.968;2022-10-31T07:49:54;11.20;99.90
17200;DHT22;8716;52.268;20.968;2022-10-31T07:52:59;11.20;99.90
17200;DHT22;8716;52.268;20.968;2022-10-31T07:55:43;11.20;99.90
17200;DHT22;8716;52.268;20.968;2022-10-31T07:58:14;11.30;99.90
17200;DHT22;8716;52.268;20.968;2022-10-31T08:00:46;11.40;99.90
17200;DHT22;8716;52.268;20.968;2022-10-31T08:03:22;11.40;99.90
17200;DHT22;8716;52.268;20.968;2022-10-31T08:06:09;11.50;99.90
17200;DHT22;8716;52.268;20.968;2022-10-31T08:09:06;11.40;99.90
17200;DHT22;8716;52.268;20.968;2022-10-31T08:11:34;11.50;99.90
17200;DHT22;8716;52.268;20.968;2022-10-31T08:14:03;11.50;99.90
17200;DHT22;8716;52.268;20.968;2022-10-31T08:16:32;12.00;99.90
17200;DHT22;8716;52.268;20.968;2022-10-31T08:19:03;12.70;99.90
17200;DHT22;8716;52.268;20.968;2022-10-31T08:21:36;13.50;99.90
17200;DHT22;8716;52.268;20.968;2022-10-31T08:24:07;14.30;99.90
17200;DHT22;8716;52.268;20.968;2022-10-31T08:26:36;15.30;99.90
17200;DHT22;8716;52.268;20.968;2022-10-31T08:29:07;16.20;99.90
17200;DHT22;8716;52.268;20.968;2022-10-31T08:31:38;17.10;99.90
17200;DHT22;8716;52.268;20.968;2022-10-31T08:34:27;17.70;99.90
17200;DHT22;8716;52.268;20.968;2022-10-31T08:37:14;18.00;99.90
17200;DHT22;8716;52.268;20.968;2022-10-31T08:39:51;18.40;99.90
17200;DHT22;8716;52.268;20.968;2022-10-31T08:42:21;18.60;99.90
17200;DHT22;8716;52.268;20.968;2022-10-31T08:44:49;18.80;99.90
17200;DHT22;8716;52.268;20.968;2022-10-31T08:47:21;18.90;99.90
17200;DHT22;8716;52.268;20.968;2022-10-31T08:49:50;19.00;99.90
17200;DHT22;8716;52.268;20.968;2022-10-31T08:52:22;19.40;99.90
17200;DHT22;8716;52.268;20.968;2022-10-31T08:55:11;19.60;99.90
17200;DHT22;8716;52.268;20.968;2022-10-31T08:57:59;20.10;99.90
17200;DHT22;8716;52.268;20.968;2022-10-31T09:00:36;20.60;99.90
17200;DHT22;8716;52.268;20.968;2022-10-31T09:03:14;20.90;99.90
17200;DHT22;8716;52.268;20.968;2022-10-31T09:05:42;21.20;99.90
17200;DHT22;8716;52.268;20.968;2022-10-31T09:08:11;21.30;99.90
17200;DHT22;8716;52.268;20.968;2022-10-31T09:10:44;21.50;99.90
17200;DHT22;8716;52.268;20.968;2022-10-31T09:13:18;21.30;99.90
17200;DHT22;8716;52.268;20.968;2022-10-31T09:16:06;21.10;99.90
17200;DHT22;8716;52.268;20.968;2022-10-31T09:18:36;21.00;99.90
17200;DHT22;8716;52.268;20.968;2022-10-31T09:21:04;21.00;99.90
17200;DHT22;8716;52.268;20.968;2022-10-31T09:23:33;21.00;99.90
17200;DHT22;8716;52.268;20.968;2022-10-31T09:26:01;21.10;99.90
17200;DHT22;8716;52.268;20.968;2022-10-31T09:28:31;21.20;99.90
17200;DHT22;8716;52.268;20.968;2022-10-31T09:31:08;21.60;99.90
17200;DHT22;8716;52.268;20.968;2022-10-31T09:33:47;21.90;99.90
17200;DHT22;8716;52.268;20.968;2022-10-31T09:36:38;22.10;99.90
17200;DHT22;8716;52.268;20.968;2022-10-31T09:39:11;22.30;99.90
17200;DHT22;8716;52.268;20.968;2022-10-31T09:42:00;22.40;99.90
17200;DHT22;8716;52.268;20.968;2022-10-31T09:44:39;22.30;99.90
17200;DHT22;8716;52.268;20.968;2022-10-31T09:47:27;22.20;99.90
17200;DHT22;8716;52.268;20.968;2022-10-31T09:50:22;22.40;99.90
17200;DHT22;8716;52.268;20.968;2022-10-31T09:52:57;22.50;99.90
17200;DHT22;8716;52.268;20.968;2022-10-31T09:55:34;22.40;99.90
17200;DHT22;8716;52.268;20.968;2022-10-31T09:58:05;22.30;99.90
17200;DHT22;8716;52.268;20.968;2022-10-31T10:00:34;22.30;99.90
17200;DHT22;8716;52.268;20.968;2022-10-31T10:03:10;22.30;99.90
17200;DHT22;8716;52.268;20.968;2022-10-31T10:05:49;22.20;99.90
17200;DHT22;8716;52.268;20.968;2022-10-31T10:08:32;22.10;99.90
17200;DHT22;8716;52.268;20.968;2022-10-31T10:11:40;22.00;99.90
17200;DHT22;8716;52.268;20.968;2022-10-31T10:14:30;22.00;99.90
17200;DHT22;8716;52.268;20.968;2022-10-31T10:17:15;22.10;99.90
17200;DHT22;8716;52.268;20.968;2022-10-31T10:20:17;22.20;99.90
17200;DHT22;8716;52.268;20.968;2022-10-31T10:22:55;22.40;99.90
17200;DHT22;8716;52.268;20.968;2022-10-31T10:25:34;22.60;99.90
17200;DHT22;8716;52.268;20.968;2022-10-31T10:28:16;22.60;99.90
17200;DHT22;8716;52.268;20.968;2022-10-31T10:30:50;22.70;99.90
17200;DHT22;8716;52.268;20.968;2022-10-31T10:33:22;22.70;99.90
17200;DHT22;8716;52.268;20.968;2022-10-31T10:35:55;22.70;99.90
17200;DHT22;8716;52.268;20.968;2022-10-31T10:38:32;22.80;99.90
17200;DHT22;8716;52.268;20.968;2022-10-31T10:41:07;22.80;99.90
17200;DHT22;8716;52.268;20.968;2022-10-31T10:43:38;22.80;99.90
17200;DHT22;8716;52.268;20.968;2022-10-31T10:46:17;22.70;99.90
17200;DHT22;8716;52.268;20.968;2022-10-31T10:49:12;22.40;99.90
17200;DHT22;8716;52.268;20.968;2022-10-31T10:51:46;22.10;99.90
17200;DHT22;8716;52.268;20.968;2022-10-31T10:54:45;21.90;99.90
17200;DHT22;8716;52.268;20.968;2022-10-31T10:57:27;21.50;99.90
17200;DHT22;8716;52.268;20.968;2022-10-31T11:00:01;21.30;99.90
17200;DHT22;8716;52.268;20.968;2022-10-31T11:02:32;21.00;99.90
17200;DHT22;8716;52.268;20.968;2022-10-31T11:05:01;20.90;99.90
17200;DHT22;8716;52.268;20.968;2022-10-31T11:07:38;20.80;99.90
17200;DHT22;8716;52.268;20.968;2022-10-31T11:10:12;20.60;99.90
17200;DHT22;8716;52.268;20.968;2022-10-31T11:12:43;20.40;99.90
17200;DHT22;8716;52.268;20.968;2022-10-31T11:15:19;20.20;99.90
17200;DHT22;8716;52.268;20.968;2022-10-31T11:17:49;20.10;99.90
17200;DHT22;8716;52.268;20.968;2022-10-31T11:20:30;19.90;99.90
17200;DHT22;8716;52.268;20.968;2022-10-31T11:23:05;19.60;99.90
17200;DHT22;8716;52.268;20.968;2022-10-31T11:25:38;19.40;99.90
17200;DHT22;8716;52.268;20.968;2022-10-31T11:28:09;19.40;99.90
17200;DHT22;8716;52.268;20.968;2022-10-31T11:30:43;19.40;99.90
17200;DHT22;8716;52.268;20.968;2022-10-31T11:33:17;19.40;99.90
17200;DHT22;8716;52.268;20.968;2022-10-31T11:35:47;19.20;99.90
17200;DHT22;8716;52.268;20.968;2022-10-31T11:38:25;19.00;99.90
17200;DHT22;8716;52.268;20.968;2022-10-31T11:40:58;18.90;99.90
17200;DHT22;8716;52.268;20.968;2022-10-31T11:43:27;18.70;99.90
17200;DHT22;8716;52.268;20.968;2022-10-31T11:45:56;18.60;99.90
17200;DHT22;8716;52.268;20.968;2022-10-31T11:48:25;18.50;99.90
17200;DHT22;8716;52.268;20.968;2022-10-31T11:50:56;18.50;99.90
17200;DHT22;8716;52.268;20.968;2022-10-31T11:53:28;18.40;99.90
17200;DHT22;8716;52.268;20.968;2022-10-31T11:56:05;18.50;99.90
17200;DHT22;8716;52.268;20.968;2022-10-31T11:58:34;18.60;99.90
17200;DHT22;8716;52.268;20.968;2022-10-31T12:01:02;18.60;99.90
17200;DHT22;8716;52.268;20.968;2022-10-31T12:03:41;18.60;99.90
17200;DHT22;8716;52.268;20.968;2022-10-31T12:06:15;18.60;99.90
17200;DHT22;8716;52.268;20.968;2022-10-31T12:08:44;18.60;99.90
17200;DHT22;8716;52.268;20.968;2022-10-31T12:11:32;18.60;99.90
17200;DHT22;8716;52.268;20.968;2022-10-31T12:14:10;18.50;99.90
17200;DHT22;8716;52.268;20.968;2022-10-31T12:16:47;18.50;99.90
17200;DHT22;8716;52.268;20.968;2022-10-31T12:19:24;18.50;99.90
17200;DHT22;8716;52.268;20.968;2022-10-31T12:22:08;18.50;99.90
17200;DHT22;8716;52.268;20.968;2022-10-31T12:27:59;18.50;99.90
17200;DHT22;8716;52.268;20.968;2022-10-31T12:30:35;18.60;99.90
17200;DHT22;8716;52.268;20.968;2022-10-31T12:33:23;18.60;99.90
17200;DHT22;8716;52.268;20.968;2022-10-31T12:36:04;18.70;99.90
17200;DHT22;8716;52.268;20.968;2022-10-31T12:38:55;18.80;99.90
17200;DHT22;8716;52.268;20.968;2022-10-31T12:41:38;18.90;99.90
17200;DHT22;8716;52.268;20.968;2022-10-31T12:44:22;19.00;99.90
17200;DHT22;8716;52.268;20.968;2022-10-31T12:47:07;19.00;99.90
17200;DHT22;8716;52.268;20.968;2022-10-31T12:49:45;19.10;99.90
17200;DHT22;8716;52.268;20.968;2022-10-31T12:55:27;19.30;99.90
17200;DHT22;8716;52.268;20.968;2022-10-31T12:58:02;19.40;99.90
17200;DHT22;8716;52.268;20.968;2022-10-31T13:00:36;19.40;99.90
17200;DHT22;8716;52.268;20.968;2022-10-31T13:03:19;19.50;99.90
17200;DHT22;8716;52.268;20.968;2022-10-31T13:05:51;19.50;99.90
17200;DHT22;8716;52.268;20.968;2022-10-31T13:08:26;19.60;99.90
17200;DHT22;8716;52.268;20.968;2022-10-31T13:11:02;19.60;99.90
17200;DHT22;8716;52.268;20.968;2022-10-31T13:13:38;19.60;99.90
17200;DHT22;8716;52.268;20.968;2022-10-31T13:16:14;19.60;99.90
17200;DHT22;8716;52.268;20.968;2022-10-31T13:18:47;19.60;99.90
17200;DHT22;8716;52.268;20.968;2022-10-31T13:21:20;19.70;99.90
17200;DHT22;8716;52.268;20.968;2022-10-31T13:23:50;19.60;99.90
17200;DHT22;8716;52.268;20.968;2022-10-31T13:26:35;19.60;99.90
17200;DHT22;8716;52.268;20.968;2022-10-31T13:29:11;19.60;99.90
17200;DHT22;8716;52.268;20.968;2022-10-31T13:31:45;19.60;99.90
17200;DHT22;8716;52.268;20.968;2022-10-31T13:34:25;19.50;99.90
17200;DHT22;8716;52.268;20.968;2022-10-31T13:37:03;19.40;99.90
17200;DHT22;8716;52.268;20.968;2022-10-31T13:39:44;19.40;99.90
17200;DHT22;8716;52.268;20.968;2022-10-31T13:42:23;19.20;99.90
17200;DHT22;8716;52.268;20.968;2022-10-31T13:44:53;19.10;99.90
17200;DHT22;8716;52.268;20.968;2022-10-31T13:47:25;19.00;99.90
17200;DHT22;8716;52.268;20.968;2022-10-31T13:50:05;18.90;99.90
17200;DHT22;8716;52.268;20.968;2022-10-31T13:52:33;18.90;99.90
17200;DHT22;8716;52.268;20.968;2022-10-31T13:55:02;18.80;99.90
17200;DHT22;8716;52.268;20.968;2022-10-31T13:57:33;18.60;99.90
17200;DHT22;8716;52.268;20.968;2022-10-31T14:00:05;18.50;99.90
17200;DHT22;8716;52.268;20.968;2022-10-31T14:02:47;18.40;99.90
17200;DHT22;8716;52.268;20.968;2022-10-31T14:05:22;18.40;99.90
17200;DHT22;8716;52.268;20.968;2022-10-31T14:07:52;18.30;99.90
17200;DHT22;8716;52.268;20.968;2022-10-31T14:10:24;18.10;99.90
17200;DHT22;8716;52.268;20.968;2022-10-31T14:13:05;18.00;99.90
17200;DHT22;8716;52.268;20.968;2022-10-31T14:15:34;17.90;99.90
17200;DHT22;8716;52.268;20.968;2022-10-31T14:18:06;17.80;99.90
17200;DHT22;8716;52.268;20.968;2022-10-31T14:20:40;17.70;99.90
17200;DHT22;8716;52.268;20.968;2022-10-31T14:26:07;17.50;99.90
17200;DHT22;8716;52.268;20.968;2022-10-31T14:28:44;17.40;99.90
17200;DHT22;8716;52.268;20.968;2022-10-31T14:31:34;17.30;99.90
17200;DHT22;8716;52.268;20.968;2022-10-31T14:34:19;17.10;99.90
17200;DHT22;8716;52.268;20.968;2022-10-31T14:37:13;17.00;99.90
17200;DHT22;8716;52.268;20.968;2022-10-31T14:39:53;17.00;99.90
17200;DHT22;8716;52.268;20.968;2022-10-31T14:42:37;16.80;99.90
17200;DHT22;8716;52.268;20.968;2022-10-31T14:45:28;16.80;99.90
17200;DHT22;8716;52.268;20.968;2022-10-31T14:48:27;16.70;99.90
17200;DHT22;8716;52.268;20.968;2022-10-31T14:51:00;16.60;99.90
17200;DHT22;8716;52.268;20.968;2022-10-31T14:53:34;16.50;99.90
17200;DHT22;8716;52.268;20.968;2022-10-31T14:56:09;16.30;99.90
17200;DHT22;8716;52.268;20.968;2022-10-31T14:58:40;16.20;99.90
17200;DHT22;8716;52.268;20.968;2022-10-31T15:01:20;16.10;99.90
17200;DHT22;8716;52.268;20.968;2022-10-31T15:03:49;16.10;99.90
17200;DHT22;8716;52.268;20.968;2022-10-31T15:06:42;16.00;99.90
17200;DHT22;8716;52.268;20.968;2022-10-31T15:09:21;15.90;99.90
17200;DHT22;8716;52.268;20.968;2022-10-31T15:11:50;15.80;99.90
17200;DHT22;8716;52.268;20.968;2022-10-31T15:14:24;15.70;99.90
17200;DHT22;8716;52.268;20.968;2022-10-31T15:16:53;15.60;99.90
17200;DHT22;8716;52.268;20.968;2022-10-31T15:19:23;15.50;99.90
17200;DHT22;8716;52.268;20.968;2022-10-31T15:21:56;15.40;99.90
17200;DHT22;8716;52.268;20.968;2022-10-31T15:24:32;15.30;99.90
17200;DHT22;8716;52.268;20.968;2022-10-31T15:27:03;15.30;99.90
17200;DHT22;8716;52.268;20.968;2022-10-31T15:29:32;15.20;99.90
17200;DHT22;8716;52.268;20.968;2022-10-31T15:32:01;15.10;99.90
17200;DHT22;8716;52.268;20.968;2022-10-31T15:34:38;15.10;99.90
17200;DHT22;8716;52.268;20.968;2022-10-31T15:37:11;15.10;99.90
17200;DHT22;8716;52.268;20.968;2022-10-31T15:39:40;15.00;99.90
17200;DHT22;8716;52.268;20.968;2022-10-31T15:42:24;14.90;99.90
17200;DHT22;8716;52.268;20.968;2022-10-31T15:45:26;14.90;99.90
17200;DHT22;8716;52.268;20.968;2022-10-31T15:47:57;14.80;99.90
17200;DHT22;8716;52.268;20.968;2022-10-31T15:50:30;14.70;99.90
17200;DHT22;8716;52.268;20.968;2022-10-31T16:31:39;13.90;99.90
17200;DHT22;8716;52.268;20.968;2022-10-31T16:38:25;13.80;99.90
17200;DHT22;8716;52.268;20.968;2022-10-31T16:42:14;13.80;99.90
17200;DHT22;8716;52.268;20.968;2022-10-31T16:44:58;13.70;99.90
17200;DHT22;8716;52.268;20.968;2022-10-31T17:02:45;13.90;99.90
17200;DHT22;8716;52.268;20.968;2022-10-31T17:05:17;13.90;99.90
17200;DHT22;8716;52.268;20.968;2022-10-31T17:07:47;13.90;99.90
17200;DHT22;8716;52.268;20.968;2022-10-31T17:10:17;13.90;99.90
17200;DHT22;8716;52.268;20.968;2022-10-31T17:12:48;13.90;99.90
17200;DHT22;8716;52.268;20.968;2022-10-31T17:15:20;13.90;99.90
17200;DHT22;8716;52.268;20.968;2022-10-31T17:17:49;13.90;99.90
17200;DHT22;8716;52.268;20.968;2022-10-31T17:20:20;13.90;99.90
17200;DHT22;8716;52.268;20.968;2022-10-31T17:22:49;13.80;99.90
17200;DHT22;8716;52.268;20.968;2022-10-31T17:25:19;13.90;99.90
17200;DHT22;8716;52.268;20.968;2022-10-31T17:27:49;13.90;99.90
17200;DHT22;8716;52.268;20.968;2022-10-31T17:30:19;13.90;99.90
17200;DHT22;8716;52.268;20.968;2022-10-31T17:32:49;14.00;99.90